createdAt,value
2017-07-08T00:02:09.669Z,12.83
2017-07-08T00:04:37.208Z,13.77
2017-07-08T00:07:07.778Z,13.67
2017-07-08T00:09:38.256Z,11.97
2017-07-08T00:12:09.384Z,14.40
2017-07-08T00:14:36.967Z,13.17
2017-07-08T00:17:08.438Z,14.30
2017-07-08T00:19:35.991Z,13.13
2017-07-08T00:22:03.519Z,12.60
2017-07-08T00:24:33.925Z,13.83
2017-07-08T00:27:01.903Z,13.50
2017-07-08T00:29:33.707Z,14.53
2017-07-08T00:32:01.240Z,18.07
2017-07-08T00:34:32.568Z,14.63
2017-07-08T00:37:00.533Z,13.57
2017-07-08T00:39:28.468Z,14.20
2017-07-08T00:41:58.373Z,17.10
2017-07-08T00:44:25.918Z,17.03
2017-07-08T00:46:56.481Z,15.17
2017-07-08T00:49:28.564Z,15.63
2017-07-08T00:51:56.516Z,16.20
2017-07-08T00:54:25.518Z,14.73
2017-07-08T00:56:53.090Z,18.30
2017-07-08T00:59:20.619Z,18.00
2017-07-08T01:01:48.150Z,15.03
2017-07-08T01:04:19.100Z,21.00
2017-07-08T01:06:48.028Z,19.57
2017-07-08T01:09:15.988Z,16.50
2017-07-08T01:11:44.546Z,13.97
2017-07-08T01:14:12.100Z,15.40
2017-07-08T01:16:39.666Z,17.53
2017-07-08T01:19:07.251Z,18.90
2017-07-08T01:21:35.473Z,19.70
2017-07-08T01:24:03.533Z,18.60
2017-07-08T01:26:31.106Z,18.53
2017-07-08T01:28:58.641Z,17.67
2017-07-08T01:31:26.215Z,17.87
2017-07-08T01:33:53.754Z,19.20
2017-07-08T01:36:21.346Z,20.43
2017-07-08T01:38:48.891Z,22.27
2017-07-08T01:41:16.536Z,27.73
2017-07-08T01:43:44.135Z,23.27
2017-07-08T01:46:12.872Z,23.33
2017-07-08T01:48:40.712Z,25.00
2017-07-08T01:51:08.635Z,28.00
2017-07-08T01:53:37.307Z,20.83
2017-07-08T01:56:05.337Z,21.23
2017-07-08T01:58:37.538Z,23.90
2017-07-08T02:01:05.737Z,27.27
2017-07-08T02:03:33.311Z,30.53
2017-07-08T02:06:00.868Z,29.97
2017-07-08T02:08:28.400Z,43.00
2017-07-08T02:10:59.612Z,45.77
2017-07-08T02:13:27.142Z,37.77
2017-07-08T02:15:59.627Z,28.47
2017-07-08T02:18:27.580Z,28.00
2017-07-08T02:20:55.126Z,28.50
2017-07-08T02:23:24.656Z,42.83
2017-07-08T02:25:52.605Z,27.90
2017-07-08T02:28:22.645Z,27.87
2017-07-08T02:30:50.569Z,27.90
2017-07-08T02:33:18.154Z,28.63
2017-07-08T02:35:46.102Z,32.43
2017-07-08T02:38:13.658Z,28.23
2017-07-08T02:40:41.281Z,31.07
2017-07-08T02:43:17.275Z,32.27
2017-07-08T02:45:44.812Z,29.30
2017-07-08T02:48:12.384Z,26.13
2017-07-08T02:50:39.920Z,32.67
2017-07-08T02:53:07.571Z,31.90
2017-07-08T02:55:36.358Z,40.03
2017-07-08T02:58:03.914Z,32.87
2017-07-08T03:00:34.252Z,33.67
2017-07-08T03:03:01.792Z,35.47
2017-07-08T03:05:30.870Z,34.60
2017-07-08T03:07:58.815Z,33.10
2017-07-08T03:12:58.788Z,36.80
2017-07-08T03:15:26.349Z,31.30
2017-07-08T03:17:56.831Z,33.10
2017-07-08T03:20:24.386Z,31.90
2017-07-08T03:22:51.938Z,30.70
2017-07-08T03:25:19.479Z,30.37
2017-07-08T03:27:47.053Z,34.70
2017-07-08T03:30:17.367Z,36.20
2017-07-08T03:32:44.932Z,35.13
2017-07-08T03:35:12.473Z,39.83
2017-07-08T03:37:40.010Z,40.77
2017-07-08T03:40:08.000Z,43.83
2017-07-08T03:42:35.924Z,44.53
2017-07-08T03:45:06.316Z,36.83
2017-07-08T03:47:33.863Z,41.97
2017-07-08T03:50:01.559Z,39.77
2017-07-08T03:52:29.124Z,36.50
2017-07-08T03:54:57.077Z,40.67
2017-07-08T03:57:28.552Z,41.03
2017-07-08T03:59:56.490Z,35.87
2017-07-08T04:02:28.284Z,36.63
2017-07-08T04:04:55.829Z,39.53
2017-07-08T04:07:23.391Z,45.40
2017-07-08T04:09:55.845Z,50.13
2017-07-08T04:12:23.404Z,57.50
2017-07-08T04:14:51.378Z,61.83
2017-07-08T04:17:21.988Z,56.63
2017-07-08T04:19:49.552Z,55.67
2017-07-08T04:22:20.028Z,59.33
2017-07-08T04:24:47.605Z,62.03
2017-07-08T04:27:18.910Z,65.90
2017-07-08T04:29:46.473Z,68.00
2017-07-08T04:32:14.048Z,65.13
2017-07-08T04:34:41.596Z,61.07
2017-07-08T04:37:09.217Z,57.03
2017-07-08T04:39:37.443Z,54.90
2017-07-08T04:42:09.868Z,54.50
2017-07-08T04:44:40.056Z,49.80
2017-07-08T04:47:08.044Z,45.63
2017-07-08T04:49:37.297Z,50.80
2017-07-08T04:52:09.190Z,47.23
2017-07-08T04:54:41.913Z,46.20
2017-07-08T04:57:09.523Z,49.80
2017-07-08T04:59:40.108Z,49.30
2017-07-08T05:02:07.977Z,47.43
2017-07-08T05:04:36.325Z,46.40
2017-07-08T05:07:08.145Z,52.50
2017-07-08T05:09:36.761Z,46.97
2017-07-08T05:12:08.163Z,49.10
2017-07-08T05:14:36.687Z,38.30
2017-07-08T05:17:04.241Z,40.27
2017-07-08T05:19:31.846Z,49.57
2017-07-08T05:21:59.448Z,48.23
2017-07-08T05:24:26.976Z,48.97
2017-07-08T05:26:54.528Z,48.23
2017-07-08T05:29:22.057Z,49.07
2017-07-08T05:31:49.610Z,52.30
2017-07-08T05:34:17.193Z,52.13
2017-07-08T05:36:52.175Z,49.20
2017-07-08T05:39:19.722Z,48.43
2017-07-08T05:41:47.294Z,42.70
2017-07-08T05:44:19.101Z,44.30
2017-07-08T05:46:46.663Z,50.90
2017-07-08T05:49:15.126Z,40.23
2017-07-08T05:51:43.228Z,36.43
2017-07-08T05:54:13.715Z,32.10
2017-07-08T05:56:48.853Z,32.70
2017-07-08T05:59:19.226Z,29.30
2017-07-08T06:01:46.782Z,30.83
2017-07-08T06:04:14.336Z,31.90
2017-07-08T06:06:44.183Z,32.80
2017-07-08T06:09:14.193Z,39.00
2017-07-08T06:11:42.223Z,43.13
2017-07-08T06:14:09.810Z,39.70
2017-07-08T06:16:41.259Z,49.63
2017-07-08T06:19:11.797Z,43.97
2017-07-08T06:21:39.361Z,47.80
2017-07-08T06:24:07.473Z,62.07
2017-07-08T06:26:36.144Z,58.83
2017-07-08T06:29:03.670Z,53.47
2017-07-08T06:31:31.238Z,52.30
2017-07-08T06:34:11.168Z,54.73
2017-07-08T06:36:44.538Z,57.37
2017-07-08T06:39:12.078Z,65.83
2017-07-08T06:41:39.636Z,58.10
2017-07-08T06:44:09.249Z,57.73
2017-07-08T06:46:37.197Z,54.93
2017-07-08T06:49:06.128Z,56.87
2017-07-08T06:51:33.674Z,57.53
2017-07-08T06:54:01.225Z,67.77
2017-07-08T06:56:28.762Z,47.30
2017-07-08T06:58:56.723Z,24.93
2017-07-08T07:01:24.324Z,37.33
2017-07-08T07:03:51.879Z,40.17
2017-07-08T07:06:21.419Z,43.83
2017-07-08T07:08:48.985Z,25.30
2017-07-08T07:11:19.396Z,28.07
2017-07-08T07:13:46.928Z,28.40
2017-07-08T07:16:14.474Z,36.40
2017-07-08T07:18:43.471Z,44.47
2017-07-08T07:21:13.472Z,36.67
2017-07-08T07:23:41.406Z,39.50
2017-07-08T07:26:08.969Z,34.57
2017-07-08T07:28:43.539Z,36.53
2017-07-08T07:31:11.084Z,32.77
2017-07-08T07:33:38.620Z,34.50
2017-07-08T07:36:06.820Z,29.33
2017-07-08T07:38:38.268Z,30.10
2017-07-08T07:41:06.931Z,36.17
2017-07-08T07:43:35.363Z,29.20
2017-07-08T07:46:06.226Z,29.07
2017-07-08T07:48:33.974Z,25.37
2017-07-08T07:51:01.521Z,16.63
2017-07-08T07:53:29.100Z,13.90
2017-07-08T07:55:56.629Z,14.37
2017-07-08T07:58:24.152Z,15.13
2017-07-08T08:00:52.104Z,17.80
2017-07-08T08:03:19.698Z,17.80
2017-07-08T08:05:47.378Z,13.57
2017-07-08T08:08:14.914Z,12.67
2017-07-08T08:10:42.507Z,16.10
2017-07-08T08:13:10.043Z,8.30
2017-07-08T08:15:37.589Z,10.20
2017-07-08T08:18:06.152Z,8.87
2017-07-08T08:20:33.698Z,12.13
2017-07-08T08:23:01.352Z,7.80
2017-07-08T08:25:28.880Z,9.57
2017-07-08T08:27:56.528Z,11.83
2017-07-08T08:30:24.059Z,4.63
2017-07-08T08:32:52.000Z,7.40
2017-07-08T08:35:19.565Z,6.00
2017-07-08T08:37:47.159Z,7.33
2017-07-08T08:40:14.752Z,5.57
2017-07-08T08:42:42.428Z,8.10
2017-07-08T08:45:10.023Z,4.50
2017-07-08T08:47:39.553Z,5.57
2017-07-08T08:50:07.735Z,6.30
2017-07-08T08:52:36.296Z,8.30
2017-07-08T08:55:03.840Z,7.87
2017-07-08T08:57:31.412Z,6.90
2017-07-08T08:59:58.955Z,7.67
2017-07-08T09:02:26.919Z,8.07
2017-07-08T09:04:54.850Z,9.87
2017-07-08T09:07:22.399Z,8.30
2017-07-08T09:09:50.266Z,7.83
2017-07-08T09:12:17.811Z,9.93
2017-07-08T09:14:45.370Z,8.13
2017-07-08T09:17:12.905Z,9.60
2017-07-08T09:19:40.764Z,9.80
2017-07-08T09:22:08.716Z,9.03
2017-07-08T09:24:37.429Z,6.50
2017-07-08T09:27:05.079Z,8.23
2017-07-08T09:29:33.189Z,6.97
2017-07-08T09:32:00.882Z,7.30
2017-07-08T09:34:28.856Z,8.53
2017-07-08T09:36:56.384Z,7.23
2017-07-08T09:39:23.940Z,7.83
2017-07-08T09:41:51.496Z,8.40
2017-07-08T09:44:19.039Z,9.77
2017-07-08T09:46:46.582Z,7.40
2017-07-08T09:49:14.109Z,7.73
2017-07-08T09:51:41.638Z,9.83
2017-07-08T09:54:09.538Z,12.97
2017-07-08T09:56:37.129Z,11.27
2017-07-08T09:59:04.627Z,9.23
2017-07-08T10:01:32.246Z,10.50
2017-07-08T10:03:59.762Z,9.63
2017-07-08T10:06:27.664Z,10.43
2017-07-08T10:08:55.183Z,9.27
2017-07-08T10:11:22.696Z,12.20
2017-07-08T10:13:50.235Z,10.43
2017-07-08T10:16:17.726Z,9.80
2017-07-08T10:18:45.251Z,8.60
2017-07-08T10:21:12.777Z,8.90
2017-07-08T10:23:40.302Z,7.83
2017-07-08T10:26:07.826Z,8.03
2017-07-08T10:28:35.326Z,8.40
2017-07-08T10:31:02.851Z,7.53
2017-07-08T10:33:30.383Z,7.17
2017-07-08T10:35:57.956Z,7.40
2017-07-08T10:38:25.665Z,7.97
2017-07-08T10:40:53.201Z,7.97
2017-07-08T10:43:20.787Z,7.00
2017-07-08T10:45:48.289Z,7.03
2017-07-08T10:48:15.813Z,6.97
2017-07-08T10:50:43.306Z,6.13
2017-07-08T10:53:10.830Z,8.17
2017-07-08T10:55:38.338Z,6.93
2017-07-08T10:58:05.886Z,7.83
2017-07-08T11:00:33.384Z,8.50
2017-07-08T11:03:00.956Z,8.40
2017-07-08T11:05:28.510Z,7.00
2017-07-08T11:07:56.009Z,8.57
2017-07-08T11:10:23.525Z,10.23
2017-07-08T11:12:51.447Z,9.10
2017-07-08T11:15:18.994Z,8.77
2017-07-08T11:17:46.509Z,9.33
2017-07-08T11:20:14.029Z,11.33
2017-07-08T11:22:41.560Z,9.00
2017-07-08T11:25:09.092Z,11.40
2017-07-08T11:27:37.002Z,10.33
2017-07-08T11:30:04.510Z,11.40
2017-07-08T11:32:32.029Z,10.40
2017-07-08T11:34:59.922Z,9.93
2017-07-08T11:37:27.643Z,10.50
2017-07-08T11:39:55.167Z,8.43
2017-07-08T11:42:22.698Z,7.67
2017-07-08T11:44:50.230Z,7.80
2017-07-08T11:47:17.729Z,8.40
2017-07-08T11:49:45.248Z,7.93
2017-07-08T11:52:12.751Z,9.50
2017-07-08T11:54:40.268Z,9.40
2017-07-08T11:57:07.771Z,9.30
2017-07-08T11:59:35.303Z,10.40
2017-07-08T12:02:03.201Z,9.30
2017-07-08T12:04:30.722Z,7.80
2017-07-08T12:06:58.240Z,9.00
2017-07-08T12:09:26.191Z,8.80
2017-07-08T12:11:53.685Z,8.20
2017-07-08T12:14:21.213Z,8.07
2017-07-08T12:16:48.722Z,9.50
2017-07-08T12:19:16.642Z,7.87
2017-07-08T12:21:44.141Z,7.87
2017-07-08T12:24:11.675Z,8.17
2017-07-08T12:26:39.180Z,8.47
2017-07-08T12:29:06.703Z,6.57
2017-07-08T12:31:34.203Z,8.40
2017-07-08T12:34:01.727Z,8.17
2017-07-08T12:36:29.638Z,7.77
2017-07-08T12:38:57.218Z,8.43
2017-07-08T12:41:24.750Z,8.70
2017-07-08T12:43:52.305Z,7.80
2017-07-08T12:46:19.822Z,6.40
2017-07-08T12:48:47.326Z,7.33
2017-07-08T12:51:15.115Z,7.43
2017-07-08T12:53:42.646Z,7.17
2017-07-08T12:56:10.155Z,8.47
2017-07-08T12:58:37.682Z,7.60
2017-07-08T13:01:05.204Z,8.03
2017-07-08T13:12:10.955Z,7.50
2017-07-08T13:14:38.886Z,8.70
2017-07-08T13:17:06.423Z,9.00
2017-07-08T13:19:33.986Z,9.77
2017-07-08T13:22:01.588Z,9.50
2017-07-08T13:24:29.098Z,9.10
2017-07-08T13:26:56.629Z,10.33
2017-07-08T13:29:24.153Z,8.60
2017-07-08T13:31:51.695Z,8.30
2017-07-08T13:34:19.219Z,8.47
2017-07-08T13:36:46.763Z,9.27
2017-07-08T13:39:14.294Z,9.43
2017-07-08T13:41:42.223Z,9.73
2017-07-08T13:44:10.629Z,8.90
2017-07-08T13:46:38.162Z,9.97
2017-07-08T13:49:05.752Z,8.43
2017-07-08T13:51:33.271Z,7.90
2017-07-08T13:54:02.038Z,7.70
2017-07-08T13:56:30.341Z,8.03
2017-07-08T14:01:50.468Z,8.13
2017-07-08T14:04:18.417Z,6.43
2017-07-08T14:06:45.936Z,6.07
2017-07-08T14:09:13.485Z,5.80
2017-07-08T14:11:41.031Z,9.27
2017-07-08T14:14:08.572Z,6.73
2017-07-08T14:16:36.139Z,7.20
2017-07-08T14:19:04.019Z,6.83
2017-07-08T14:21:31.586Z,6.07
2017-07-08T14:23:59.112Z,5.70
2017-07-08T14:26:26.643Z,8.90
2017-07-08T14:28:54.192Z,5.40
2017-07-08T14:31:21.803Z,6.10
2017-07-08T14:33:49.473Z,6.63
2017-07-08T14:36:17.070Z,5.80
2017-07-08T14:38:44.670Z,6.67
2017-07-08T14:41:12.239Z,6.03
2017-07-08T14:43:39.766Z,7.63
2017-07-08T14:46:07.333Z,7.97
2017-07-08T14:48:35.307Z,5.27
2017-07-08T14:51:02.987Z,5.23
2017-07-08T14:53:31.092Z,5.00
2017-07-08T14:55:59.187Z,5.67
2017-07-08T14:58:26.851Z,5.13
2017-07-08T15:00:54.404Z,5.50
2017-07-08T15:03:21.961Z,8.13
2017-07-08T15:05:49.471Z,4.90
2017-07-08T15:08:17.024Z,5.17
2017-07-08T15:10:44.560Z,5.50
2017-07-08T15:13:12.167Z,5.77
2017-07-08T15:15:40.076Z,5.40
2017-07-08T15:18:07.607Z,5.53
2017-07-08T15:20:35.119Z,6.40
2017-07-08T15:23:03.098Z,5.43
2017-07-08T15:25:30.755Z,5.53
2017-07-08T15:27:58.308Z,4.80
2017-07-08T15:30:25.857Z,6.10
2017-07-08T15:32:53.407Z,6.83
2017-07-08T15:35:21.971Z,5.60
2017-07-08T15:37:51.423Z,5.30
2017-07-08T15:40:19.013Z,4.50
2017-07-08T15:42:46.536Z,5.07
2017-07-08T15:45:25.718Z,3.90
2017-07-08T15:47:53.286Z,5.10
2017-07-08T15:50:20.815Z,4.67
2017-07-08T15:52:48.375Z,4.50
2017-07-08T15:55:15.879Z,4.40
2017-07-08T15:57:43.483Z,4.50
2017-07-08T16:00:11.041Z,6.03
2017-07-08T16:02:38.631Z,4.83
2017-07-08T16:05:06.191Z,3.23
2017-07-08T16:07:33.772Z,3.77
2017-07-08T16:10:01.290Z,2.93
2017-07-08T16:12:32.540Z,2.90
2017-07-08T16:39:38.050Z,4.17
2017-07-08T16:42:05.596Z,4.50
2017-07-08T16:44:33.662Z,4.27
2017-07-08T16:47:01.201Z,4.63
2017-07-08T16:49:28.838Z,4.00
2017-07-08T16:51:56.539Z,5.00
2017-07-08T16:54:24.073Z,4.00
2017-07-08T16:56:51.625Z,4.77
2017-07-08T16:59:19.164Z,6.93
2017-07-08T17:01:46.861Z,4.13
2017-07-08T17:04:14.401Z,4.27
2017-07-08T17:06:43.089Z,5.17
2017-07-08T17:09:10.604Z,4.33
2017-07-08T17:11:38.265Z,5.33
2017-07-08T17:14:05.883Z,4.23
2017-07-08T17:16:34.528Z,4.23
2017-07-08T17:19:02.044Z,8.60
2017-07-08T17:21:29.987Z,3.87
2017-07-08T17:23:57.525Z,5.23
2017-07-08T17:26:25.164Z,4.23
2017-07-08T17:28:52.698Z,3.90
2017-07-08T17:31:21.093Z,5.47
2017-07-08T17:33:48.740Z,4.53
2017-07-08T17:36:16.709Z,5.07
2017-07-08T17:38:44.223Z,4.33
2017-07-08T17:41:11.966Z,4.50
2017-07-08T17:43:39.587Z,4.73
2017-07-08T17:46:07.685Z,4.40
2017-07-08T17:48:35.220Z,4.50
2017-07-08T17:51:03.328Z,5.40
2017-07-08T17:53:30.990Z,6.20
2017-07-08T17:55:58.636Z,8.90
2017-07-08T17:58:26.255Z,6.53
2017-07-08T18:00:54.261Z,6.40
2017-07-08T18:03:21.804Z,7.27
2017-07-08T18:05:49.553Z,6.77
2017-07-08T18:08:17.641Z,6.33
2017-07-08T18:10:45.356Z,7.30
2017-07-08T18:13:13.007Z,5.60
2017-07-08T18:15:40.625Z,7.00
2017-07-08T18:18:08.358Z,7.20
2017-07-08T18:20:35.950Z,5.90
2017-07-08T18:23:03.585Z,8.17
2017-07-08T18:25:31.168Z,6.77
2017-07-08T18:27:58.721Z,6.30
2017-07-08T18:30:26.262Z,6.33
2017-07-08T18:32:53.768Z,7.70
2017-07-08T18:35:21.482Z,7.13
2017-07-08T18:37:50.117Z,6.23
2017-07-08T18:40:17.697Z,6.40
2017-07-08T18:42:45.375Z,7.07
2017-07-08T18:45:12.913Z,6.23
2017-07-08T18:47:40.449Z,6.70
2017-07-08T18:50:07.952Z,6.50
2017-07-08T18:52:36.114Z,6.90
2017-07-08T18:55:03.672Z,9.00
2017-07-08T18:57:31.497Z,7.20
2017-07-08T18:59:59.007Z,7.23
2017-07-08T19:02:27.055Z,8.67
2017-07-08T19:04:54.583Z,7.23
2017-07-08T19:07:22.334Z,7.27
2017-07-08T19:09:49.872Z,8.40
2017-07-08T19:12:17.778Z,7.03
2017-07-08T19:14:45.329Z,6.47
2017-07-08T19:17:12.979Z,7.23
2017-07-08T19:19:40.504Z,7.27
2017-07-08T19:22:08.376Z,7.03
2017-07-08T19:24:35.921Z,8.10
2017-07-08T19:27:03.718Z,9.40
2017-07-08T19:29:31.245Z,8.63
2017-07-08T19:31:59.187Z,7.10
2017-07-08T19:34:26.717Z,6.87
2017-07-08T19:36:54.260Z,6.73
2017-07-08T19:39:21.780Z,6.40
2017-07-08T19:41:49.509Z,6.67
2017-07-08T19:44:17.108Z,7.00
2017-07-08T19:46:44.764Z,7.70
2017-07-08T19:49:12.296Z,7.10
2017-07-08T19:51:40.202Z,6.60
2017-07-08T19:54:08.137Z,10.20
2017-07-08T19:56:35.756Z,7.57
2017-07-08T19:59:03.308Z,8.23
2017-07-08T20:01:30.830Z,8.40
2017-07-08T20:03:58.357Z,8.73
2017-07-08T20:06:25.988Z,8.30
2017-07-08T20:08:53.518Z,9.57
2017-07-08T20:11:21.781Z,9.70
2017-07-08T20:13:49.722Z,9.30
2017-07-08T20:16:17.397Z,10.53
2017-07-08T20:18:44.901Z,9.97
2017-07-08T20:21:12.472Z,8.60
2017-07-08T20:23:40.001Z,9.47
2017-07-08T20:26:08.054Z,8.17
2017-07-08T20:28:35.601Z,7.70
2017-07-08T20:31:03.145Z,9.30
2017-07-08T20:33:30.683Z,8.93
2017-07-08T20:35:58.296Z,9.00
2017-07-08T20:38:25.842Z,9.77
2017-07-08T20:40:53.516Z,9.20
2017-07-08T20:43:21.450Z,8.93
2017-07-08T20:45:49.162Z,9.60
2017-07-08T20:48:17.120Z,9.73
2017-07-08T20:50:45.048Z,9.10
2017-07-08T20:53:13.581Z,8.50
2017-07-08T20:55:41.513Z,9.60
2017-07-08T20:58:09.667Z,9.27
2017-07-08T21:00:39.231Z,8.70
2017-07-08T21:03:06.840Z,10.03
2017-07-08T21:05:35.325Z,9.27
2017-07-08T21:08:02.983Z,9.47
2017-07-08T21:10:30.588Z,9.50
2017-07-08T21:12:59.973Z,9.80
2017-07-08T21:15:27.897Z,8.10
2017-07-08T21:17:56.139Z,69.30
2017-07-08T21:20:23.800Z,12.27
2017-07-08T21:22:52.873Z,18.50
2017-07-08T21:25:20.804Z,11.43
2017-07-08T21:27:48.437Z,29.37
2017-07-08T21:30:15.961Z,16.80
2017-07-08T21:32:43.894Z,13.33
2017-07-08T21:35:11.448Z,15.17
2017-07-08T21:37:38.971Z,9.53
2017-07-08T21:40:06.539Z,27.60
2017-07-08T21:42:34.075Z,22.60
2017-07-08T21:45:01.660Z,13.67
2017-07-08T21:47:29.320Z,10.37
2017-07-08T21:49:56.875Z,16.57
2017-07-08T21:52:24.468Z,13.80
2017-07-08T21:54:52.412Z,17.80
2017-07-08T21:57:19.984Z,18.40
2017-07-08T21:59:47.525Z,20.90
2017-07-08T22:02:15.075Z,36.13
2017-07-08T22:04:42.598Z,36.70
2017-07-08T22:07:10.531Z,44.40
2017-07-08T22:09:38.043Z,27.47
2017-07-08T22:12:05.640Z,50.77
2017-07-08T22:14:33.171Z,24.93
2017-07-08T22:17:00.703Z,17.30
2017-07-08T22:19:28.648Z,13.83
2017-07-08T22:21:56.169Z,12.57
2017-07-08T22:24:23.705Z,10.57
2017-07-08T22:26:51.229Z,11.70
2017-07-08T22:29:19.172Z,11.53
2017-07-08T22:31:46.691Z,11.67
2017-07-08T22:34:14.252Z,11.90
2017-07-08T22:36:41.772Z,12.13
2017-07-08T22:39:09.692Z,13.00
2017-07-08T22:41:37.236Z,12.30
2017-07-08T22:44:04.760Z,13.10
2017-07-08T22:46:32.308Z,15.63
2017-07-08T22:48:59.829Z,11.37
2017-07-08T22:51:27.379Z,12.33
2017-07-08T22:53:54.900Z,10.77
2017-07-08T22:56:22.468Z,16.13
2017-07-08T22:58:49.997Z,13.63
2017-07-08T23:01:17.535Z,13.40
2017-07-08T23:03:45.086Z,15.47
2017-07-08T23:06:12.642Z,13.40
2017-07-08T23:08:40.184Z,13.30
2017-07-08T23:11:07.719Z,14.03
2017-07-08T23:13:35.323Z,13.20
2017-07-08T23:16:02.848Z,16.27
2017-07-08T23:18:30.414Z,17.17
2017-07-08T23:20:57.935Z,14.90
2017-07-08T23:23:25.855Z,15.17
2017-07-08T23:25:53.402Z,15.97
2017-07-08T23:28:20.933Z,14.70
2017-07-08T23:30:48.471Z,13.93
2017-07-08T23:33:16.382Z,17.10
2017-07-08T23:35:43.935Z,15.17
2017-07-08T23:38:11.451Z,14.63
2017-07-08T23:40:38.999Z,13.93
2017-07-08T23:43:06.550Z,15.93
2017-07-08T23:45:34.084Z,15.40
2017-07-08T23:48:01.628Z,17.30
2017-07-08T23:50:29.172Z,16.73
2017-07-08T23:52:56.711Z,16.10
2017-07-08T23:55:24.642Z,17.10
2017-07-08T23:57:52.185Z,17.70
